aviador You're here:

EPLB Decoded Metar

in
Report Time2018-06-23 12:00:00
UTC Time2018-06-23 12:11:53
Flight Rules vfr VFR
Wind140° at 08 kt
W.Rank140° ranks 24
Current wind is above 140° avg. (5.9)
Visibility9999 m
Phenomena:N/A
Clouds:Scattered 045 Hf
Expected CloudBase > 2,400 ft AGL from Temp-Dew spread
CeilingNone
Temp13°C
Dew Point07°C (67% RH)
AAT9.4°C
QNH1013 hPa
Raw Report
EPLB 231200Z 14008KT 9999 SCT045 13/07 Q1013=

Extra information for EPLB:More info

Social comments